Time;durP1;ratioP1;P1;durP2;ratioP2;P2;SDS_P1;SDS_P2;PMS_P1;PMS_P2;Temp;Humidity;BMP_temperature;BMP_pressure;BME280_temperature;BME280_humidity;BME280_pressure;Samples;Min_cycle;Max_cycle;Signal;HPM_P1;HPM_P2
2021/08/03 00:00:20;;;;;;;1.20;0.47;;;15.00;79.50;;;;;;2057847;28;20074;-94
2021/08/03 00:01:23;;;;;;;1.33;0.55;;;15.00;79.50;;;;;;2059416;28;20039;-95
2021/08/03 00:02:24;;;;;;;0.80;0.47;;;15.00;79.50;;;;;;2065759;28;20058;-94
2021/08/03 00:03:34;;;;;;;1.05;0.50;;;15.00;79.60;;;;;;2066021;28;20097;-95
2021/08/03 00:04:42;;;;;;;0.65;0.40;;;15.00;79.60;;;;;;2066010;28;20062;-94
2021/08/03 00:05:49;;;;;;;1.23;0.40;;;15.00;79.70;;;;;;2066380;28;20121;-94
2021/08/03 00:06:56;;;;;;;0.82;0.47;;;15.00;79.70;;;;;;2073595;28;20018;-93
2021/08/03 00:08:02;;;;;;;1.00;0.50;;;15.00;80.10;;;;;;2075902;28;20010;-93
2021/08/03 00:09:03;;;;;;;0.73;0.40;;;15.00;79.70;;;;;;2084265;28;20085;-91
2021/08/03 00:10:05;;;;;;;1.65;0.50;;;14.90;79.70;;;;;;2075880;28;20018;-94
2021/08/03 00:11:08;;;;;;;0.65;0.40;;;14.90;79.70;;;;;;2076122;28;20019;-93
2021/08/03 00:12:13;;;;;;;0.85;0.30;;;14.90;79.80;;;;;;2076010;28;20011;-93
2021/08/03 00:13:14;;;;;;;1.05;0.50;;;14.90;79.70;;;;;;2076384;28;20026;-95
2021/08/03 00:14:15;;;;;;;1.08;0.50;;;14.90;79.70;;;;;;2075583;28;20025;-93
2021/08/03 00:15:22;;;;;;;0.85;0.60;;;14.90;79.70;;;;;;2059941;28;20065;-93
2021/08/03 00:16:23;;;;;;;1.08;0.82;;;14.90;79.70;;;;;;2076599;28;20118;-92
2021/08/03 00:17:26;;;;;;;0.98;0.50;;;14.90;79.60;;;;;;2075922;28;20033;-93
2021/08/03 00:18:26;;;;;;;0.68;0.40;;;15.00;79.70;;;;;;2076002;28;20125;-93
2021/08/03 00:19:27;;;;;;;1.75;0.52;;;15.00;79.60;;;;;;2083665;28;20068;-94
2021/08/03 00:20:28;;;;;;;0.70;0.38;;;15.00;79.60;;;;;;2071449;28;20065;-93
2021/08/03 00:21:30;;;;;;;0.77;0.40;;;15.00;79.60;;;;;;2070522;28;20041;-94
2021/08/03 00:22:32;;;;;;;1.33;0.40;;;15.00;79.60;;;;;;2069901;28;20512;-94
2021/08/03 00:23:39;;;;;;;1.58;0.50;;;14.90;79.60;;;;;;2069014;28;20030;-94
2021/08/03 00:24:41;;;;;;;1.05;0.50;;;14.90;79.70;;;;;;2078286;28;20133;-94
2021/08/03 00:25:41;;;;;;;0.95;0.40;;;14.90;80.30;;;;;;2069397;28;20085;-94
2021/08/03 00:26:43;;;;;;;1.25;0.40;;;14.90;79.70;;;;;;2050030;29;20074;-94
2021/08/03 00:27:43;;;;;;;1.80;0.50;;;15.00;79.80;;;;;;2050582;28;20031;-94
2021/08/03 00:28:49;;;;;;;0.90;0.40;;;14.90;79.70;;;;;;2050409;29;20143;-95
2021/08/03 00:29:50;;;;;;;0.55;0.43;;;14.90;79.70;;;;;;2044303;28;20040;-94
2021/08/03 00:30:51;;;;;;;1.17;0.40;;;14.90;79.80;;;;;;2051506;28;20106;-94
2021/08/03 00:31:53;;;;;;;0.73;0.40;;;14.90;79.90;;;;;;2060031;28;20039;-94
2021/08/03 00:32:55;;;;;;;0.75;0.30;;;14.90;80.00;;;;;;2071740;28;20062;-94
2021/08/03 00:33:57;;;;;;;0.75;0.50;;;14.80;79.90;;;;;;2081406;28;20058;-94
2021/08/03 00:34:57;;;;;;;1.17;0.50;;;14.80;79.90;;;;;;2073615;28;20018;-94
2021/08/03 00:35:58;;;;;;;1.23;0.43;;;14.80;80.00;;;;;;2065758;28;20074;-94
2021/08/03 00:36:59;;;;;;;0.50;0.40;;;14.80;80.00;;;;;;2066913;28;20019;-94
2021/08/03 00:38:01;;;;;;;0.77;0.40;;;14.80;80.10;;;;;;2059376;28;20041;-94
2021/08/03 00:39:01;;;;;;;1.38;0.50;;;14.80;80.10;;;;;;2067567;28;20035;-94
2021/08/03 00:40:05;;;;;;;1.35;0.40;;;14.80;80.10;;;;;;2075292;28;20045;-94
2021/08/03 00:41:11;;;;;;;1.27;0.47;;;14.90;80.20;;;;;;2082965;28;20057;-94
2021/08/03 00:42:12;;;;;;;1.50;0.40;;;14.80;80.10;;;;;;2067298;28;20026;-94
2021/08/03 00:43:12;;;;;;;1.10;0.45;;;14.90;80.20;;;;;;2070208;28;20058;-94
2021/08/03 00:44:13;;;;;;;0.85;0.40;;;14.80;80.20;;;;;;2062202;28;20489;-95
2021/08/03 00:45:14;;;;;;;1.38;0.30;;;14.80;80.20;;;;;;2061728;28;20061;-94
2021/08/03 00:46:15;;;;;;;0.75;0.40;;;14.80;80.30;;;;;;2061155;28;20054;-94
2021/08/03 00:47:18;;;;;;;1.80;0.60;;;14.80;80.30;;;;;;2053873;29;20074;-94
2021/08/03 00:48:20;;;;;;;0.77;0.40;;;14.80;80.40;;;;;;2070782;28;20037;-94
2021/08/03 00:49:21;;;;;;;1.23;0.40;;;14.80;80.40;;;;;;2062173;28;20058;-95
2021/08/03 00:50:22;;;;;;;1.38;0.52;;;14.80;80.50;;;;;;2054766;28;20062;-95
2021/08/03 00:51:22;;;;;;;0.50;0.40;;;14.80;80.50;;;;;;2054673;28;20045;-95
2021/08/03 00:52:25;;;;;;;1.05;0.43;;;14.80;80.40;;;;;;2070798;28;20034;-95
2021/08/03 00:53:26;;;;;;;0.95;0.40;;;14.80;80.40;;;;;;2070816;28;20043;-94
2021/08/03 00:54:27;;;;;;;1.02;0.40;;;14.80;80.40;;;;;;2062688;28;20102;-95
2021/08/03 00:55:27;;;;;;;1.23;0.50;;;14.80;80.40;;;;;;2059160;28;20533;-94
2021/08/03 00:56:29;;;;;;;0.85;0.40;;;14.80;80.40;;;;;;2057553;28;20089;-94
2021/08/03 00:57:32;;;;;;;0.50;0.40;;;14.80;80.40;;;;;;2057415;28;20124;-95
2021/08/03 00:58:32;;;;;;;0.50;0.30;;;14.80;80.40;;;;;;2058156;28;20049;-94
2021/08/03 00:59:34;;;;;;;1.23;0.57;;;14.80;80.50;;;;;;2059080;28;20118;-94
2021/08/03 01:00:35;;;;;;;1.90;0.30;;;14.80;80.50;;;;;;2059537;28;20054;-94
2021/08/03 01:01:35;;;;;;;0.50;0.35;;;14.70;80.50;;;;;;2051538;28;20045;-95
2021/08/03 01:02:36;;;;;;;1.35;0.40;;;14.80;80.50;;;;;;2058663;28;20595;-94
2021/08/03 01:03:37;;;;;;;1.10;0.45;;;14.70;80.50;;;;;;2066948;28;20385;-95
2021/08/03 01:04:38;;;;;;;1.85;0.40;;;14.80;80.60;;;;;;2059087;28;20130;-94
2021/08/03 01:05:47;;;;;;;1.00;0.43;;;14.70;80.60;;;;;;2051045;28;20454;-95
2021/08/03 01:06:54;;;;;;;0.90;0.50;;;14.70;80.70;;;;;;2074998;28;20038;-94
2021/08/03 01:08:09;;;;;;;0.82;0.40;;;14.70;80.70;;;;;;2075902;28;20104;-95
2021/08/03 01:09:24;;;;;;;0.82;0.40;;;14.70;80.70;;;;;;2083288;28;20064;-94
2021/08/03 01:10:48;;;;;;;1.48;0.40;;;14.70;80.80;;;;;;2074769;28;20034;-95
2021/08/03 01:12:38;;;;;;;0.70;0.32;;;14.70;80.80;;;;;;2075165;28;20034;-94
2021/08/03 01:13:56;;;;;;;0.52;0.30;;;14.60;80.70;;;;;;2069975;28;20038;-94
2021/08/03 01:15:16;;;;;;;0.90;0.40;;;14.60;80.70;;;;;;2061224;28;20054;-94
2021/08/03 01:16:22;;;;;;;1.05;0.40;;;14.60;80.70;;;;;;2070565;28;20042;-94
2021/08/03 01:17:43;;;;;;;0.55;0.40;;;14.60;80.70;;;;;;2075127;28;20044;-94
2021/08/03 01:18:56;;;;;;;;;;;14.70;80.80;;;;;;2069989;28;20034;-94
2021/08/03 01:20:02;;;;;;;0.75;0.25;;;14.60;80.70;;;;;;2076884;28;19920;-94
2021/08/03 01:21:18;;;;;;;0.77;0.40;;;14.60;80.70;;;;;;2074865;28;20033;-95
2021/08/03 01:23:12;;;;;;;1.70;0.40;;;14.60;80.70;;;;;;2068805;28;20042;-94
2021/08/03 01:24:15;;;;;;;0.52;0.32;;;14.60;80.80;;;;;;2042501;29;20600;-94
2021/08/03 01:25:50;;;;;;;0.65;0.40;;;14.60;80.80;;;;;;2042940;29;20398;-94
2021/08/03 01:27:28;;;;;;;0.40;0.30;;;14.60;80.90;;;;;;2063928;28;20066;-94
2021/08/03 01:28:33;;;;;;;1.20;0.35;;;14.60;80.90;;;;;;2071802;28;20038;-94
2021/08/03 01:29:34;;;;;;;0.63;0.30;;;14.60;81.00;;;;;;2067422;28;20042;-94
2021/08/03 01:30:37;;;;;;;0.90;0.40;;;14.60;81.00;;;;;;2067124;28;20058;-95
2021/08/03 01:31:42;;;;;;;0.47;0.30;;;14.60;81.10;;;;;;2067389;28;20058;-94
2021/08/03 01:32:44;;;;;;;1.13;0.40;;;14.50;81.20;;;;;;2059068;28;20037;-95
2021/08/03 01:33:52;;;;;;;1.42;0.50;;;14.50;81.30;;;;;;2059158;28;20370;-95
2021/08/03 01:34:55;;;;;;;1.30;0.30;;;14.50;81.40;;;;;;2067953;28;20120;-94
2021/08/03 01:36:00;;;;;;;1.90;0.50;;;14.50;81.50;;;;;;2074864;28;20033;-94
2021/08/03 01:37:01;;;;;;;1.25;0.40;;;14.50;81.50;;;;;;2075659;28;20030;-94
2021/08/03 01:38:04;;;;;;;0.40;0.32;;;14.50;81.60;;;;;;2066455;28;20037;-94
2021/08/03 01:39:07;;;;;;;0.65;0.40;;;14.50;81.70;;;;;;2067047;28;20512;-94
2021/08/03 01:40:11;;;;;;;1.25;0.40;;;14.50;81.70;;;;;;2075119;28;20034;-94
2021/08/03 01:41:16;;;;;;;0.60;0.28;;;14.50;81.80;;;;;;2074689;28;20117;-94
2021/08/03 01:42:18;;;;;;;1.25;0.40;;;14.40;81.80;;;;;;2074882;28;20022;-94
2021/08/03 01:43:19;;;;;;;0.82;0.30;;;14.40;81.90;;;;;;2074922;28;20076;-94
2021/08/03 01:44:21;;;;;;;0.90;0.40;;;14.40;82.00;;;;;;2066911;28;20042;-95
2021/08/03 01:45:23;;;;;;;0.88;0.40;;;14.40;82.10;;;;;;2067380;28;20031;-94
2021/08/03 01:46:28;;;;;;;1.77;0.30;;;14.40;82.10;;;;;;2066814;28;20045;-95
2021/08/03 01:47:31;;;;;;;0.85;0.30;;;14.40;82.10;;;;;;2067244;28;20392;-94
2021/08/03 01:48:33;;;;;;;1.70;0.40;;;14.40;82.20;;;;;;2059198;28;20039;-94
2021/08/03 01:49:37;;;;;;;1.20;0.40;;;14.40;82.20;;;;;;2058805;28;20043;-94
2021/08/03 01:50:39;;;;;;;0.60;0.47;;;14.40;82.10;;;;;;2059777;28;20114;-94
2021/08/03 01:51:41;;;;;;;1.10;0.40;;;14.40;82.20;;;;;;2058860;28;20129;-95
2021/08/03 01:52:43;;;;;;;1.58;0.50;;;14.40;82.20;;;;;;2058729;28;20132;-94
2021/08/03 01:53:45;;;;;;;0.65;0.38;;;14.30;82.20;;;;;;2066579;28;20042;-95
2021/08/03 01:54:47;;;;;;;0.80;0.50;;;14.30;82.20;;;;;;2066867;28;20065;-94
2021/08/03 01:55:48;;;;;;;0.75;0.40;;;14.30;82.30;;;;;;2050422;28;20110;-94
2021/08/03 01:56:50;;;;;;;1.70;0.57;;;14.30;82.40;;;;;;2050952;28;20406;-94
2021/08/03 01:57:51;;;;;;;1.40;0.60;;;14.30;82.40;;;;;;2066182;28;20034;-95
2021/08/03 01:58:53;;;;;;;0.70;0.40;;;14.30;82.50;;;;;;2050682;29;20077;-94
2021/08/03 01:59:54;;;;;;;1.00;0.40;;;14.30;82.50;;;;;;2059013;28;20436;-94
2021/08/03 02:00:57;;;;;;;1.98;0.60;;;14.30;82.50;;;;;;2066495;28;20069;-95
2021/08/03 02:01:59;;;;;;;1.10;0.50;;;14.30;82.50;;;;;;2058513;28;20034;-94
2021/08/03 02:03:01;;;;;;;1.77;0.50;;;14.30;82.50;;;;;;2050902;28;20046;-94
2021/08/03 02:04:03;;;;;;;1.33;0.60;;;14.30;82.50;;;;;;2066460;28;20034;-94
2021/08/03 02:05:06;;;;;;;0.95;0.50;;;14.20;82.50;;;;;;2066474;28;20096;-95
2021/08/03 02:06:08;;;;;;;2.38;0.50;;;14.30;82.60;;;;;;2066951;28;20419;-94
2021/08/03 02:07:09;;;;;;;1.15;0.50;;;14.30;82.70;;;;;;2066208;28;20037;-94
2021/08/03 02:08:10;;;;;;;0.68;0.47;;;14.20;82.70;;;;;;2058708;28;20035;-95
2021/08/03 02:09:11;;;;;;;0.93;0.40;;;14.20;82.70;;;;;;2058627;28;20122;-95
2021/08/03 02:10:12;;;;;;;0.90;0.50;;;14.20;82.70;;;;;;2049857;28;20067;-95
2021/08/03 02:11:13;;;;;;;1.40;0.60;;;14.20;82.90;;;;;;2058649;28;20476;-94
2021/08/03 02:12:14;;;;;;;0.88;0.50;;;14.10;82.80;;;;;;2066414;28;20050;-94
2021/08/03 02:13:16;;;;;;;1.67;0.50;;;14.20;82.90;;;;;;2066708;28;20038;-94
2021/08/03 02:14:21;;;;;;;0.77;0.50;;;14.20;82.90;;;;;;2058186;28;20045;-95
2021/08/03 02:15:21;;;;;;;1.88;0.50;;;14.20;83.00;;;;;;2051765;28;20047;-95
2021/08/03 02:16:22;;;;;;;1.30;0.50;;;14.10;82.90;;;;;;2058485;28;20137;-94
2021/08/03 02:17:25;;;;;;;0.50;0.40;;;14.10;83.00;;;;;;2058754;28;20038;-95
2021/08/03 02:18:26;;;;;;;1.40;0.47;;;14.10;83.10;;;;;;2058638;28;20799;-94
2021/08/03 02:19:27;;;;;;;1.85;0.40;;;14.10;83.10;;;;;;2058258;28;20423;-94
2021/08/03 02:20:28;;;;;;;1.52;0.43;;;14.10;83.10;;;;;;2050455;28;20035;-94
2021/08/03 02:21:29;;;;;;;1.48;0.60;;;14.10;83.10;;;;;;2058234;28;20374;-95
2021/08/03 02:22:39;;;;;;;2.13;0.50;;;14.10;83.20;;;;;;2066747;28;20510;-95
2021/08/03 02:23:43;;;;;;;0.90;0.45;;;14.10;83.20;;;;;;2059766;28;20552;-94
2021/08/03 02:24:48;;;;;;;0.75;0.40;;;14.10;83.20;;;;;;2063294;28;20134;-95
2021/08/03 02:25:49;;;;;;;1.42;0.60;;;14.10;83.20;;;;;;2058443;28;20417;-95
2021/08/03 02:26:52;;;;;;;0.85;0.43;;;14.10;83.30;;;;;;2050826;28;20039;-94
2021/08/03 02:27:56;;;;;;;0.63;0.38;;;14.10;83.30;;;;;;2058401;28;20082;-94
2021/08/03 02:29:00;;;;;;;0.93;0.50;;;14.10;83.40;;;;;;2059057;28;20038;-95
2021/08/03 02:30:13;;;;;;;0.60;0.30;;;14.10;83.30;;;;;;2059591;28;20038;-94
2021/08/03 02:31:28;;;;;;;0.80;0.40;;;14.10;83.40;;;;;;2068152;28;20523;-94
2021/08/03 02:33:05;;;;;;;0.93;0.45;;;14.10;83.40;;;;;;2072056;28;20116;-95
2021/08/03 02:34:34;;;;;;;0.85;0.30;;;14.10;83.40;;;;;;2054214;28;20046;-94
2021/08/03 02:35:46;;;;;;;2.33;0.40;;;14.10;83.40;;;;;;2053859;28;20563;-94
2021/08/03 02:36:53;;;;;;;0.73;0.40;;;14.10;83.40;;;;;;2056958;28;20051;-94
2021/08/03 02:37:59;;;;;;;0.68;0.40;;;14.20;84.00;;;;;;2057847;28;20031;-95
2021/08/03 02:39:11;;;;;;;0.50;0.35;;;14.10;83.40;;;;;;2049195;29;20043;-94
2021/08/03 02:40:13;;;;;;;0.75;0.43;;;14.10;83.40;;;;;;2043981;28;20036;-92
2021/08/03 02:41:22;;;;;;;1.02;0.35;;;14.10;83.30;;;;;;2052932;28;20044;-94
2021/08/03 02:42:26;;;;;;;0.65;0.30;;;14.20;83.30;;;;;;2057709;28;20199;-95
2021/08/03 02:43:30;;;;;;;1.40;0.50;;;14.10;83.20;;;;;;2049790;29;20039;-94
2021/08/03 02:44:32;;;;;;;1.05;0.60;;;14.10;83.30;;;;;;2051318;28;20050;-94
2021/08/03 02:45:35;;;;;;;1.48;0.50;;;14.10;83.30;;;;;;2042242;29;20528;-94
2021/08/03 02:46:54;;;;;;;0.85;0.50;;;14.10;83.40;;;;;;2044325;28;20052;-95
2021/08/03 02:48:18;;;;;;;0.95;0.40;;;14.10;83.40;;;;;;2052490;28;20513;-94
2021/08/03 02:49:46;;;;;;;0.85;0.40;;;14.10;83.50;;;;;;2061300;28;20084;-94
2021/08/03 02:50:47;;;;;;;0.90;0.40;;;14.10;83.50;;;;;;2057959;28;20070;-94
2021/08/03 02:51:56;;;;;;;0.68;0.32;;;14.10;83.50;;;;;;2049629;28;20145;-95
2021/08/03 02:53:06;;;;;;;1.63;0.43;;;14.10;83.60;;;;;;2051163;28;20078;-94
2021/08/03 02:54:32;;;;;;;0.90;0.40;;;14.00;83.20;;;;;;2043083;29;20062;-94
2021/08/03 02:55:41;;;;;;;0.60;0.30;;;14.00;83.60;;;;;;2049626;28;20068;-94
2021/08/03 02:56:44;;;;;;;1.20;0.40;;;14.00;83.70;;;;;;2046685;29;20187;-95
2021/08/03 02:57:57;;;;;;;1.60;0.60;;;14.00;83.80;;;;;;2042993;28;20040;-94
2021/08/03 02:59:05;;;;;;;1.60;0.40;;;14.00;83.90;;;;;;2049661;29;20509;-95
2021/08/03 03:00:13;;;;;;;3.70;0.60;;;14.00;83.90;;;;;;2052687;28;20035;-94
2021/08/03 03:01:16;;;;;;;1.83;0.50;;;14.00;83.90;;;;;;2066018;28;20041;-94
2021/08/03 03:02:22;;;;;;;2.35;0.50;;;14.00;83.90;;;;;;2060473;28;20058;-94
2021/08/03 03:03:27;;;;;;;0.55;0.32;;;14.00;84.00;;;;;;2058469;28;20043;-94
2021/08/03 03:04:35;;;;;;;0.77;0.40;;;14.00;84.00;;;;;;2065840;28;20043;-95
2021/08/03 03:05:45;;;;;;;0.60;0.30;;;14.00;84.10;;;;;;2065808;28;20037;-94
2021/08/03 03:06:58;;;;;;;0.95;0.50;;;14.00;84.10;;;;;;2059006;28;20496;-95
2021/08/03 03:08:12;;;;;;;0.57;0.40;;;14.00;84.10;;;;;;2069985;28;20109;-94
2021/08/03 03:09:25;;;;;;;1.40;0.47;;;14.00;84.10;;;;;;2076338;28;20065;-95
2021/08/03 03:10:29;;;;;;;1.65;0.50;;;14.00;84.10;;;;;;2083754;28;20043;-94
2021/08/03 03:11:32;;;;;;;0.50;0.30;;;14.00;84.10;;;;;;2074220;28;20038;-95
2021/08/03 03:12:35;;;;;;;1.15;0.40;;;13.90;84.00;;;;;;2058562;28;20042;-94
2021/08/03 03:13:51;;;;;;;1.70;0.45;;;14.00;84.10;;;;;;2058861;28;20027;-94
2021/08/03 03:15:08;;;;;;;1.27;0.55;;;14.00;84.20;;;;;;2074193;28;20049;-94
2021/08/03 03:16:12;;;;;;;0.43;0.30;;;14.00;84.10;;;;;;2073907;28;20681;-94
2021/08/03 03:17:17;;;;;;;1.55;0.73;;;14.00;84.10;;;;;;2075034;28;20041;-94
2021/08/03 03:18:26;;;;;;;1.25;0.45;;;14.00;84.10;;;;;;2074475;28;20133;-94
2021/08/03 03:19:34;;;;;;;0.90;0.47;;;14.00;84.20;;;;;;2067496;28;20519;-95
2021/08/03 03:20:38;;;;;;;1.42;0.50;;;14.00;84.20;;;;;;2067597;28;20026;-94
2021/08/03 03:21:42;;;;;;;1.55;0.50;;;14.00;84.20;;;;;;2066860;28;20105;-94
2021/08/03 03:22:49;;;;;;;1.10;0.40;;;13.90;84.20;;;;;;2072535;28;20533;-95
2021/08/03 03:23:52;;;;;;;1.00;0.50;;;14.00;84.30;;;;;;2066472;28;20042;-95
2021/08/03 03:24:56;;;;;;;1.23;0.50;;;13.90;84.30;;;;;;2067120;28;20121;-94
2021/08/03 03:25:59;;;;;;;0.93;0.50;;;13.90;84.30;;;;;;2066954;28;20125;-95
2021/08/03 03:27:18;;;;;;;2.00;0.55;;;13.90;84.30;;;;;;2060319;28;20043;-95
2021/08/03 03:28:32;;;;;;;0.75;0.40;;;13.90;84.40;;;;;;2073536;28;20066;-95
2021/08/03 03:29:38;;;;;;;0.98;0.40;;;13.90;84.40;;;;;;2085365;28;20010;-94
2021/08/03 03:30:43;;;;;;;0.68;0.32;;;13.90;84.40;;;;;;2074776;28;20038;-94
2021/08/03 03:31:51;;;;;;;2.33;0.60;;;13.90;84.40;;;;;;2069300;28;20034;-94
2021/08/03 03:32:55;;;;;;;2.00;0.40;;;13.90;84.40;;;;;;2077308;28;20066;-93
2021/08/03 03:34:09;;;;;;;0.82;0.47;;;13.90;84.40;;;;;;2076284;28;20022;-94
2021/08/03 03:35:21;;;;;;;0.60;0.40;;;13.90;84.50;;;;;;2085543;28;20042;-93
2021/08/03 03:36:28;;;;;;;0.70;0.40;;;13.90;84.50;;;;;;2075743;28;20029;-92
2021/08/03 03:37:31;;;;;;;0.52;0.43;;;13.90;84.50;;;;;;2076913;28;20030;-89
2021/08/03 03:38:35;;;;;;;1.58;0.40;;;13.90;84.50;;;;;;2076394;28;20027;-93
2021/08/03 03:39:37;;;;;;;1.05;0.40;;;13.90;84.60;;;;;;2076478;28;20044;-94
2021/08/03 03:40:39;;;;;;;1.05;0.40;;;13.90;84.60;;;;;;2076091;28;20026;-93
2021/08/03 03:41:46;;;;;;;1.67;0.50;;;13.90;84.70;;;;;;2076381;28;20019;-91
2021/08/03 03:42:48;;;;;;;0.63;0.38;;;13.90;84.70;;;;;;2076960;28;20050;-91
2021/08/03 03:43:49;;;;;;;0.93;0.40;;;13.90;84.80;;;;;;2084409;28;20037;-93
2021/08/03 03:44:50;;;;;;;2.47;0.50;;;13.90;84.80;;;;;;2075956;28;20018;-94
2021/08/03 03:46:01;;;;;;;1.50;0.43;;;13.90;84.80;;;;;;2075982;28;20114;-91
2021/08/03 03:47:26;;;;;;;1.50;0.50;;;13.90;84.80;;;;;;2074826;28;20424;-94
2021/08/03 03:48:38;;;;;;;1.50;0.32;;;13.90;84.80;;;;;;2082316;28;20035;-94
2021/08/03 03:49:44;;;;;;;1.50;0.50;;;13.90;84.80;;;;;;2086565;28;20034;-95
2021/08/03 03:50:51;;;;;;;1.48;0.47;;;13.90;84.80;;;;;;2078215;28;20030;-94
2021/08/03 03:51:56;;;;;;;1.75;0.40;;;13.90;84.80;;;;;;2079736;28;20061;-94
2021/08/03 03:53:13;;;;;;;1.38;0.40;;;13.90;84.80;;;;;;2078728;28;20041;-94
2021/08/03 03:54:39;;;;;;;1.48;0.57;;;13.90;84.90;;;;;;2072263;28;20035;-94
2021/08/03 03:55:59;;;;;;;1.92;0.43;;;13.90;84.90;;;;;;2040753;29;20032;-94
2021/08/03 03:57:13;;;;;;;0.98;0.50;;;13.90;84.90;;;;;;2049093;29;20058;-94
2021/08/03 03:58:18;;;;;;;1.00;0.35;;;13.90;84.90;;;;;;2045012;29;20144;-94
2021/08/03 03:59:26;;;;;;;1.13;0.43;;;13.90;85.10;;;;;;2037833;29;20044;-94
2021/08/03 04:01:00;;;;;;;0.70;0.40;;;13.90;84.90;;;;;;2034872;29;20043;-95
2021/08/03 04:02:13;;;;;;;0.85;0.30;;;13.90;85.00;;;;;;2038691;29;20040;-94
2021/08/03 04:03:21;;;;;;;2.22;0.40;;;13.90;84.90;;;;;;2034069;29;20056;-93
2021/08/03 04:04:41;;;;;;;0.70;0.40;;;13.90;84.90;;;;;;2026214;29;20510;-94
2021/08/03 04:05:45;;;;;;;0.90;0.50;;;13.90;84.90;;;;;;2023636;29;20490;-95
2021/08/03 04:06:47;;;;;;;1.70;0.40;;;14.00;84.90;;;;;;2035059;29;20127;-95
2021/08/03 04:07:56;;;;;;;0.95;0.40;;;14.00;84.90;;;;;;2033888;29;20033;-93
2021/08/03 04:09:19;;;;;;;1.10;0.47;;;14.00;84.90;;;;;;2027823;29;20502;-95
2021/08/03 04:10:32;;;;;;;1.42;0.60;;;14.00;84.90;;;;;;2028923;29;20055;-95
2021/08/03 04:11:50;;;;;;;1.27;0.40;;;14.00;84.80;;;;;;2035054;29;20147;-94
2021/08/03 04:12:53;;;;;;;0.70;0.40;;;14.00;84.80;;;;;;2033556;29;20518;-94
2021/08/03 04:13:55;;;;;;;1.85;0.40;;;14.00;84.80;;;;;;2023576;29;20127;-95
2021/08/03 04:14:58;;;;;;;0.63;0.40;;;14.00;84.80;;;;;;2026590;29;20044;-94
2021/08/03 04:16:06;;;;;;;1.30;0.47;;;14.10;84.90;;;;;;2035417;29;20048;-95
2021/08/03 04:17:09;;;;;;;1.17;0.45;;;14.10;84.90;;;;;;2040450;29;20107;-95
2021/08/03 04:18:14;;;;;;;1.70;0.52;;;14.10;84.90;;;;;;2036133;29;20056;-94
2021/08/03 04:19:19;;;;;;;1.10;0.88;;;14.10;84.90;;;;;;2028891;29;20047;-94
2021/08/03 04:20:31;;;;;;;1.73;0.45;;;14.10;84.90;;;;;;2037072;29;20027;-90
2021/08/03 04:21:42;;;;;;;0.90;0.50;;;14.10;84.90;;;;;;2046829;29;20028;-92
2021/08/03 04:22:52;;;;;;;1.15;0.65;;;14.10;84.90;;;;;;2035747;29;20084;-93
2021/08/03 04:23:54;;;;;;;1.30;0.50;;;14.10;84.90;;;;;;2034775;29;20037;-95
2021/08/03 04:25:03;;;;;;;0.63;0.40;;;14.10;85.00;;;;;;2035745;29;20024;-94
2021/08/03 04:26:05;;;;;;;1.55;0.52;;;14.10;85.00;;;;;;2044044;29;20040;-94
2021/08/03 04:27:08;;;;;;;1.92;0.60;;;14.10;84.90;;;;;;2041618;28;20407;-95
2021/08/03 04:28:09;;;;;;;0.82;0.40;;;14.10;84.90;;;;;;2060048;28;20072;-94
2021/08/03 04:29:13;;;;;;;2.00;0.60;;;14.10;84.90;;;;;;2066561;28;20034;-94
2021/08/03 04:30:16;;;;;;;1.15;0.45;;;14.10;85.00;;;;;;2074429;28;20042;-94
2021/08/03 04:31:20;;;;;;;0.90;0.50;;;14.10;85.60;;;;;;2073857;28;20102;-95
2021/08/03 04:32:21;;;;;;;1.27;0.50;;;14.10;85.00;;;;;;2070638;28;20053;-94
2021/08/03 04:33:31;;;;;;;0.93;0.40;;;14.10;84.90;;;;;;2060263;28;20043;-94
2021/08/03 04:34:34;;;;;;;1.77;0.60;;;14.10;84.90;;;;;;2061232;28;20042;-94
2021/08/03 04:35:35;;;;;;;1.55;0.57;;;14.10;84.80;;;;;;2059881;28;20039;-94
2021/08/03 04:36:48;;;;;;;0.60;0.50;;;14.00;84.70;;;;;;2074585;28;20052;-95
2021/08/03 04:37:50;;;;;;;1.35;0.60;;;14.00;84.70;;;;;;2061981;28;20054;-94
2021/08/03 04:39:17;;;;;;;0.80;0.47;;;14.00;84.70;;;;;;2050529;28;20066;-95
2021/08/03 04:40:23;;;;;;;2.58;0.60;;;14.00;84.70;;;;;;2051384;28;20048;-95
2021/08/03 04:42:07;;;;;;;1.27;0.73;;;14.00;84.70;;;;;;2040933;29;20065;-94
2021/08/03 04:43:11;;;;;;;2.10;0.65;;;14.00;84.70;;;;;;2032534;29;20044;-94
2021/08/03 04:44:13;;;;;;;1.40;0.65;;;13.90;84.60;;;;;;2026567;29;20055;-94
2021/08/03 04:45:24;;;;;;;0.90;0.50;;;13.90;84.60;;;;;;2028503;29;20044;-95
2021/08/03 04:46:26;;;;;;;2.17;0.77;;;13.90;84.70;;;;;;2032167;29;20076;-95
2021/08/03 04:47:35;;;;;;;1.80;0.77;;;13.90;84.70;;;;;;2033632;29;20017;-95
2021/08/03 04:48:38;;;;;;;2.83;0.90;;;13.90;84.70;;;;;;2053569;28;20042;-90
2021/08/03 04:49:41;;;;;;;1.75;0.68;;;13.90;85.30;;;;;;2067991;28;20039;-94
2021/08/03 04:50:42;;;;;;;1.10;0.73;;;13.90;84.70;;;;;;2059368;28;20064;-94
2021/08/03 04:51:54;;;;;;;0.75;0.60;;;13.90;84.80;;;;;;2064630;28;20058;-94
2021/08/03 04:52:57;;;;;;;0.70;0.55;;;13.90;84.80;;;;;;2077097;28;20053;-94
2021/08/03 04:54:00;;;;;;;1.30;0.80;;;13.90;84.80;;;;;;2072483;28;20125;-94
2021/08/03 04:55:13;;;;;;;1.40;0.70;;;13.90;84.80;;;;;;2057945;28;20042;-94
2021/08/03 04:56:15;;;;;;;2.00;0.90;;;13.90;84.80;;;;;;2068525;28;20066;-94
2021/08/03 04:57:15;;;;;;;2.35;0.77;;;13.90;84.80;;;;;;2065339;28;20030;-94
2021/08/03 04:58:16;;;;;;;1.65;0.80;;;13.90;84.70;;;;;;2049358;28;20173;-94
2021/08/03 04:59:17;;;;;;;1.70;0.73;;;13.90;84.70;;;;;;2057642;28;20035;-94
2021/08/03 05:00:18;;;;;;;2.03;0.80;;;13.90;84.60;;;;;;2057950;28;20038;-94
2021/08/03 05:01:18;;;;;;;1.38;0.90;;;14.00;84.70;;;;;;2049554;29;20082;-95
2021/08/03 05:02:19;;;;;;;1.48;0.70;;;14.00;84.60;;;;;;2050294;29;20032;-94
2021/08/03 05:03:20;;;;;;;3.10;0.90;;;14.00;84.50;;;;;;2058869;28;20090;-96
2021/08/03 05:04:21;;;;;;;1.48;0.70;;;14.10;84.60;;;;;;2049261;28;20497;-95
2021/08/03 05:05:21;;;;;;;1.85;0.90;;;14.10;84.40;;;;;;2049315;28;20516;-96
2021/08/03 05:06:22;;;;;;;1.77;0.75;;;14.10;84.30;;;;;;2065593;28;20400;-95
2021/08/03 05:07:23;;;;;;;1.50;0.60;;;14.10;84.30;;;;;;2057536;28;20046;-93
2021/08/03 05:08:23;;;;;;;1.90;0.77;;;14.20;84.20;;;;;;2049480;28;20039;-94
2021/08/03 05:09:24;;;;;;;2.97;0.90;;;14.20;84.10;;;;;;2057652;28;20043;-94
2021/08/03 05:10:27;;;;;;;1.83;0.90;;;14.20;84.10;;;;;;2057577;28;20126;-96
2021/08/03 05:11:27;;;;;;;1.55;0.75;;;14.30;84.10;;;;;;2058025;28;20061;-93
2021/08/03 05:12:28;;;;;;;3.30;0.85;;;14.30;83.90;;;;;;2065322;28;20046;-93
2021/08/03 05:13:29;;;;;;;1.90;0.90;;;14.30;83.80;;;;;;2056960;28;20050;-92
2021/08/03 05:14:29;;;;;;;2.35;0.77;;;14.30;83.80;;;;;;2049300;28;20036;-93
2021/08/03 05:15:30;;;;;;;1.67;0.80;;;14.30;83.70;;;;;;2049675;28;20119;-93
2021/08/03 05:16:31;;;;;;;2.15;0.98;;;14.40;83.70;;;;;;2058262;28;20050;-93
2021/08/03 05:17:33;;;;;;;2.03;0.70;;;14.40;83.70;;;;;;2066220;28;20035;-93
2021/08/03 05:18:35;;;;;;;2.50;0.93;;;14.40;83.70;;;;;;2058144;28;20087;-92
2021/08/03 05:19:36;;;;;;;1.33;0.90;;;14.50;83.60;;;;;;2065629;28;20058;-96
2021/08/03 05:20:36;;;;;;;1.23;0.80;;;14.50;83.50;;;;;;2049464;28;20485;-93
2021/08/03 05:21:37;;;;;;;1.70;0.98;;;14.50;83.50;;;;;;2050459;28;20151;-93
2021/08/03 05:22:38;;;;;;;1.98;0.90;;;14.50;83.40;;;;;;2065601;28;20126;-93
2021/08/03 05:23:39;;;;;;;1.35;0.90;;;14.50;83.40;;;;;;2065186;28;20081;-94
2021/08/03 05:24:39;;;;;;;2.83;1.00;;;14.50;83.30;;;;;;2057630;28;20093;-94
2021/08/03 05:25:40;;;;;;;1.77;0.90;;;14.50;83.40;;;;;;2049357;28;20032;-93
2021/08/03 05:26:41;;;;;;;1.73;0.80;;;14.50;83.40;;;;;;2057306;28;20447;-93
2021/08/03 05:27:41;;;;;;;2.00;0.90;;;14.50;83.40;;;;;;2064970;28;20070;-93
2021/08/03 05:28:44;;;;;;;1.48;0.70;;;14.60;83.40;;;;;;2057398;28;20041;-93
2021/08/03 05:29:50;;;;;;;2.75;0.82;;;14.60;83.40;;;;;;2059241;28;20035;-93
2021/08/03 05:30:52;;;;;;;2.33;0.80;;;14.60;83.30;;;;;;2051255;28;20080;-93
2021/08/03 05:31:54;;;;;;;1.63;0.88;;;14.60;83.10;;;;;;2049729;28;20408;-93
2021/08/03 05:33:03;;;;;;;2.17;0.90;;;14.70;83.10;;;;;;2042784;29;20383;-94
2021/08/03 05:34:14;;;;;;;1.80;1.00;;;14.80;82.90;;;;;;2055610;28;20386;-93
2021/08/03 05:35:23;;;;;;;1.65;0.80;;;14.90;82.80;;;;;;2066011;28;20054;-93
2021/08/03 05:36:26;;;;;;;1.73;1.00;;;14.90;82.60;;;;;;2058648;28;20081;-93
2021/08/03 05:37:26;;;;;;;1.35;0.80;;;15.00;82.50;;;;;;2057398;28;20103;-94
2021/08/03 05:38:27;;;;;;;1.40;0.80;;;15.10;82.40;;;;;;2049474;28;20036;-93
2021/08/03 05:39:28;;;;;;;2.05;0.80;;;15.10;82.30;;;;;;2057642;28;20042;-93
2021/08/03 05:40:29;;;;;;;1.77;0.90;;;15.10;82.10;;;;;;2057446;28;20042;-94
2021/08/03 05:41:29;;;;;;;1.98;1.00;;;15.20;82.10;;;;;;2033622;29;20058;-93
2021/08/03 05:42:30;;;;;;;1.67;1.10;;;15.20;82.00;;;;;;2034067;28;20040;-92
2021/08/03 05:43:39;;;;;;;1.48;0.80;;;15.30;81.90;;;;;;2057277;28;20038;-93